sensor_id;sensor_type;location;lat;lon;timestamp;temperature;humidity
61841;DHT22;47773;53.174;6.614;2023-08-06T00:00:24;14.90;99.90
61841;DHT22;47773;53.174;6.614;2023-08-06T00:02:50;14.90;99.90
61841;DHT22;47773;53.174;6.614;2023-08-06T00:05:16;14.90;99.90
61841;DHT22;47773;53.174;6.614;2023-08-06T00:07:47;14.90;99.90
61841;DHT22;47773;53.174;6.614;2023-08-06T00:10:13;14.90;99.90
61841;DHT22;47773;53.174;6.614;2023-08-06T00:12:38;14.90;99.90
61841;DHT22;47773;53.174;6.614;2023-08-06T00:15:04;14.90;99.90
61841;DHT22;47773;53.174;6.614;2023-08-06T00:17:30;14.90;99.90
61841;DHT22;47773;53.174;6.614;2023-08-06T00:19:56;14.90;99.90
61841;DHT22;47773;53.174;6.614;2023-08-06T00:22:21;14.90;99.90
61841;DHT22;47773;53.174;6.614;2023-08-06T00:24:47;14.90;99.90
61841;DHT22;47773;53.174;6.614;2023-08-06T00:27:13;14.80;99.90
61841;DHT22;47773;53.174;6.614;2023-08-06T00:29:38;14.90;99.90
61841;DHT22;47773;53.174;6.614;2023-08-06T00:32:04;14.80;99.90
61841;DHT22;47773;53.174;6.614;2023-08-06T00:34:30;14.80;99.90
61841;DHT22;47773;53.174;6.614;2023-08-06T00:36:55;14.80;99.90
61841;DHT22;47773;53.174;6.614;2023-08-06T00:39:21;14.90;99.90
61841;DHT22;47773;53.174;6.614;2023-08-06T00:41:47;14.80;99.90
61841;DHT22;47773;53.174;6.614;2023-08-06T00:44:12;14.80;99.90
61841;DHT22;47773;53.174;6.614;2023-08-06T00:46:38;14.70;99.90
61841;DHT22;47773;53.174;6.614;2023-08-06T00:49:05;14.70;99.90
61841;DHT22;47773;53.174;6.614;2023-08-06T00:51:31;14.70;99.90
61841;DHT22;47773;53.174;6.614;2023-08-06T00:53:57;14.70;99.90
61841;DHT22;47773;53.174;6.614;2023-08-06T00:56:24;14.70;99.90
61841;DHT22;47773;53.174;6.614;2023-08-06T00:58:51;14.70;99.90
61841;DHT22;47773;53.174;6.614;2023-08-06T01:01:16;14.70;99.90
61841;DHT22;47773;53.174;6.614;2023-08-06T01:03:42;14.70;99.90
61841;DHT22;47773;53.174;6.614;2023-08-06T01:06:08;14.70;99.90
61841;DHT22;47773;53.174;6.614;2023-08-06T01:11:44;14.60;99.90
61841;DHT22;47773;53.174;6.614;2023-08-06T01:14:38;14.60;99.90
61841;DHT22;47773;53.174;6.614;2023-08-06T01:17:10;14.60;99.90
61841;DHT22;47773;53.174;6.614;2023-08-06T01:19:36;14.60;99.90
61841;DHT22;47773;53.174;6.614;2023-08-06T01:22:02;14.60;99.90
61841;DHT22;47773;53.174;6.614;2023-08-06T01:24:27;14.60;99.90
61841;DHT22;47773;53.174;6.614;2023-08-06T01:27:14;14.60;99.90
61841;DHT22;47773;53.174;6.614;2023-08-06T01:29:47;14.60;99.90
61841;DHT22;47773;53.174;6.614;2023-08-06T01:32:14;14.60;99.90
61841;DHT22;47773;53.174;6.614;2023-08-06T01:34:43;14.60;99.90
61841;DHT22;47773;53.174;6.614;2023-08-06T01:37:10;14.70;99.90
61841;DHT22;47773;53.174;6.614;2023-08-06T01:39:36;14.60;99.90
61841;DHT22;47773;53.174;6.614;2023-08-06T01:42:02;14.60;99.90
61841;DHT22;47773;53.174;6.614;2023-08-06T01:44:28;14.60;99.90
61841;DHT22;47773;53.174;6.614;2023-08-06T01:46:54;14.60;99.90
61841;DHT22;47773;53.174;6.614;2023-08-06T01:49:20;14.60;99.90
61841;DHT22;47773;53.174;6.614;2023-08-06T01:51:45;14.60;99.90
61841;DHT22;47773;53.174;6.614;2023-08-06T01:54:11;14.60;99.90
61841;DHT22;47773;53.174;6.614;2023-08-06T01:56:36;14.60;99.90
61841;DHT22;47773;53.174;6.614;2023-08-06T01:59:02;14.60;99.90
61841;DHT22;47773;53.174;6.614;2023-08-06T02:01:28;14.60;99.90
61841;DHT22;47773;53.174;6.614;2023-08-06T02:03:53;14.60;99.90
61841;DHT22;47773;53.174;6.614;2023-08-06T02:06:19;14.70;99.90
61841;DHT22;47773;53.174;6.614;2023-08-06T02:08:45;14.70;99.90
61841;DHT22;47773;53.174;6.614;2023-08-06T02:11:10;14.70;99.90
61841;DHT22;47773;53.174;6.614;2023-08-06T02:13:36;14.70;99.90
61841;DHT22;47773;53.174;6.614;2023-08-06T02:16:02;14.70;99.90
61841;DHT22;47773;53.174;6.614;2023-08-06T02:18:27;14.70;99.90
61841;DHT22;47773;53.174;6.614;2023-08-06T02:20:57;14.70;99.90
61841;DHT22;47773;53.174;6.614;2023-08-06T02:23:23;14.70;99.90
61841;DHT22;47773;53.174;6.614;2023-08-06T02:25:48;14.70;99.90
61841;DHT22;47773;53.174;6.614;2023-08-06T02:28:21;14.70;99.90
61841;DHT22;47773;53.174;6.614;2023-08-06T02:30:53;14.70;99.90
61841;DHT22;47773;53.174;6.614;2023-08-06T02:33:19;14.70;99.90
61841;DHT22;47773;53.174;6.614;2023-08-06T02:35:44;14.70;99.90
61841;DHT22;47773;53.174;6.614;2023-08-06T02:38:10;14.70;99.90
61841;DHT22;47773;53.174;6.614;2023-08-06T02:40:36;14.70;99.90
61841;DHT22;47773;53.174;6.614;2023-08-06T02:43:01;14.70;99.90
61841;DHT22;47773;53.174;6.614;2023-08-06T02:45:29;14.70;99.90
61841;DHT22;47773;53.174;6.614;2023-08-06T02:47:55;14.70;99.90
61841;DHT22;47773;53.174;6.614;2023-08-06T02:50:20;14.70;99.90
61841;DHT22;47773;53.174;6.614;2023-08-06T02:52:46;14.70;99.90
61841;DHT22;47773;53.174;6.614;2023-08-06T02:55:12;14.70;99.90
61841;DHT22;47773;53.174;6.614;2023-08-06T02:57:37;14.70;99.90
61841;DHT22;47773;53.174;6.614;2023-08-06T03:00:03;14.70;99.90
61841;DHT22;47773;53.174;6.614;2023-08-06T03:02:29;14.70;99.90
61841;DHT22;47773;53.174;6.614;2023-08-06T03:04:55;14.70;99.90
61841;DHT22;47773;53.174;6.614;2023-08-06T03:07:20;14.60;99.90
61841;DHT22;47773;53.174;6.614;2023-08-06T03:09:46;14.60;99.90
61841;DHT22;47773;53.174;6.614;2023-08-06T03:12:12;14.60;99.90
61841;DHT22;47773;53.174;6.614;2023-08-06T03:14:37;14.60;99.90
61841;DHT22;47773;53.174;6.614;2023-08-06T03:17:03;14.60;99.90
61841;DHT22;47773;53.174;6.614;2023-08-06T03:19:29;14.60;99.90
61841;DHT22;47773;53.174;6.614;2023-08-06T03:21:55;14.60;99.90
61841;DHT22;47773;53.174;6.614;2023-08-06T03:24:20;14.60;99.90
61841;DHT22;47773;53.174;6.614;2023-08-06T03:26:46;14.60;99.90
61841;DHT22;47773;53.174;6.614;2023-08-06T03:29:12;14.60;99.90
61841;DHT22;47773;53.174;6.614;2023-08-06T03:31:37;14.60;99.90
61841;DHT22;47773;53.174;6.614;2023-08-06T03:34:03;14.60;99.90
61841;DHT22;47773;53.174;6.614;2023-08-06T03:36:29;14.60;99.90
61841;DHT22;47773;53.174;6.614;2023-08-06T03:38:54;14.60;99.90
61841;DHT22;47773;53.174;6.614;2023-08-06T03:41:20;14.60;99.90
61841;DHT22;47773;53.174;6.614;2023-08-06T03:43:45;14.70;99.90
61841;DHT22;47773;53.174;6.614;2023-08-06T03:46:11;14.70;99.90
61841;DHT22;47773;53.174;6.614;2023-08-06T03:48:37;14.70;99.90
61841;DHT22;47773;53.174;6.614;2023-08-06T03:51:02;14.60;99.90
61841;DHT22;47773;53.174;6.614;2023-08-06T03:53:28;14.60;99.90
61841;DHT22;47773;53.174;6.614;2023-08-06T03:55:54;14.60;99.90
61841;DHT22;47773;53.174;6.614;2023-08-06T03:58:21;14.60;99.90
61841;DHT22;47773;53.174;6.614;2023-08-06T04:00:46;14.70;99.90
61841;DHT22;47773;53.174;6.614;2023-08-06T04:03:12;14.70;99.90
61841;DHT22;47773;53.174;6.614;2023-08-06T04:05:38;14.70;99.90
61841;DHT22;47773;53.174;6.614;2023-08-06T04:08:04;14.80;99.90
61841;DHT22;47773;53.174;6.614;2023-08-06T04:10:29;14.80;99.90
61841;DHT22;47773;53.174;6.614;2023-08-06T04:12:55;14.80;99.90
61841;DHT22;47773;53.174;6.614;2023-08-06T04:15:21;14.80;99.90
61841;DHT22;47773;53.174;6.614;2023-08-06T04:17:46;14.80;99.90
61841;DHT22;47773;53.174;6.614;2023-08-06T04:20:12;14.80;99.90
61841;DHT22;47773;53.174;6.614;2023-08-06T04:22:38;14.70;99.90
61841;DHT22;47773;53.174;6.614;2023-08-06T04:25:04;14.70;99.90
61841;DHT22;47773;53.174;6.614;2023-08-06T04:27:30;14.70;99.90
61841;DHT22;47773;53.174;6.614;2023-08-06T04:29:55;14.70;99.90
61841;DHT22;47773;53.174;6.614;2023-08-06T04:32:21;14.70;99.90
61841;DHT22;47773;53.174;6.614;2023-08-06T04:34:47;14.70;99.90
61841;DHT22;47773;53.174;6.614;2023-08-06T04:37:13;14.70;99.90
61841;DHT22;47773;53.174;6.614;2023-08-06T04:39:39;14.70;99.90
61841;DHT22;47773;53.174;6.614;2023-08-06T04:42:05;14.60;99.90
61841;DHT22;47773;53.174;6.614;2023-08-06T04:44:31;14.60;99.90
61841;DHT22;47773;53.174;6.614;2023-08-06T04:46:56;14.60;99.90
61841;DHT22;47773;53.174;6.614;2023-08-06T04:49:22;14.70;99.90
61841;DHT22;47773;53.174;6.614;2023-08-06T04:51:47;14.70;99.90
61841;DHT22;47773;53.174;6.614;2023-08-06T04:54:13;14.70;99.90
61841;DHT22;47773;53.174;6.614;2023-08-06T04:56:39;14.70;99.90
61841;DHT22;47773;53.174;6.614;2023-08-06T04:59:05;14.70;99.90
61841;DHT22;47773;53.174;6.614;2023-08-06T05:01:31;14.70;99.90
61841;DHT22;47773;53.174;6.614;2023-08-06T05:03:57;14.70;99.90
61841;DHT22;47773;53.174;6.614;2023-08-06T05:06:23;14.70;99.90
61841;DHT22;47773;53.174;6.614;2023-08-06T05:08:48;14.70;99.90
61841;DHT22;47773;53.174;6.614;2023-08-06T05:11:14;14.70;99.90
61841;DHT22;47773;53.174;6.614;2023-08-06T05:13:39;14.70;99.90
61841;DHT22;47773;53.174;6.614;2023-08-06T05:16:05;14.70;99.90
61841;DHT22;47773;53.174;6.614;2023-08-06T05:18:31;14.70;99.90
61841;DHT22;47773;53.174;6.614;2023-08-06T05:20:56;14.80;99.90
61841;DHT22;47773;53.174;6.614;2023-08-06T05:23:22;14.80;99.90
61841;DHT22;47773;53.174;6.614;2023-08-06T05:25:48;14.80;99.90
61841;DHT22;47773;53.174;6.614;2023-08-06T05:28:14;14.80;99.90
61841;DHT22;47773;53.174;6.614;2023-08-06T05:30:40;14.90;99.90
61841;DHT22;47773;53.174;6.614;2023-08-06T05:33:06;14.80;99.90
61841;DHT22;47773;53.174;6.614;2023-08-06T05:35:32;14.90;99.90
61841;DHT22;47773;53.174;6.614;2023-08-06T05:37:58;15.00;99.90
61841;DHT22;47773;53.174;6.614;2023-08-06T05:40:23;15.00;99.90
61841;DHT22;47773;53.174;6.614;2023-08-06T05:42:54;15.10;99.90
61841;DHT22;47773;53.174;6.614;2023-08-06T05:45:19;15.10;99.90
61841;DHT22;47773;53.174;6.614;2023-08-06T05:47:45;15.10;99.90
61841;DHT22;47773;53.174;6.614;2023-08-06T05:50:11;15.00;99.90
61841;DHT22;47773;53.174;6.614;2023-08-06T05:52:36;15.00;99.90
61841;DHT22;47773;53.174;6.614;2023-08-06T05:55:02;15.10;99.90
61841;DHT22;47773;53.174;6.614;2023-08-06T05:57:28;15.10;99.90
61841;DHT22;47773;53.174;6.614;2023-08-06T05:59:54;15.10;99.90
61841;DHT22;47773;53.174;6.614;2023-08-06T06:02:19;15.10;99.90
61841;DHT22;47773;53.174;6.614;2023-08-06T06:04:45;15.10;99.90
61841;DHT22;47773;53.174;6.614;2023-08-06T06:07:11;15.20;99.90
61841;DHT22;47773;53.174;6.614;2023-08-06T06:09:37;15.20;99.90
61841;DHT22;47773;53.174;6.614;2023-08-06T06:12:02;15.20;99.90
61841;DHT22;47773;53.174;6.614;2023-08-06T06:14:28;15.20;99.90
61841;DHT22;47773;53.174;6.614;2023-08-06T06:16:54;15.20;99.90
61841;DHT22;47773;53.174;6.614;2023-08-06T06:19:19;15.20;99.90
61841;DHT22;47773;53.174;6.614;2023-08-06T06:21:45;15.30;99.90
61841;DHT22;47773;53.174;6.614;2023-08-06T06:24:11;15.30;99.90
61841;DHT22;47773;53.174;6.614;2023-08-06T06:26:36;15.40;99.90
61841;DHT22;47773;53.174;6.614;2023-08-06T06:29:02;15.40;99.90
61841;DHT22;47773;53.174;6.614;2023-08-06T06:31:27;15.40;99.90
61841;DHT22;47773;53.174;6.614;2023-08-06T06:33:53;15.40;99.90
61841;DHT22;47773;53.174;6.614;2023-08-06T06:36:20;15.40;99.90
61841;DHT22;47773;53.174;6.614;2023-08-06T06:38:46;15.50;99.90
61841;DHT22;47773;53.174;6.614;2023-08-06T06:41:11;15.50;99.90
61841;DHT22;47773;53.174;6.614;2023-08-06T06:43:37;15.60;99.90
61841;DHT22;47773;53.174;6.614;2023-08-06T06:46:05;15.60;99.90
61841;DHT22;47773;53.174;6.614;2023-08-06T06:48:32;15.60;99.90
61841;DHT22;47773;53.174;6.614;2023-08-06T06:50:59;15.70;99.90
61841;DHT22;47773;53.174;6.614;2023-08-06T06:53:25;15.70;99.90
61841;DHT22;47773;53.174;6.614;2023-08-06T06:56:02;15.80;99.90
61841;DHT22;47773;53.174;6.614;2023-08-06T06:58:28;15.80;99.90
61841;DHT22;47773;53.174;6.614;2023-08-06T07:00:54;15.90;99.90
61841;DHT22;47773;53.174;6.614;2023-08-06T07:03:20;16.00;99.90
61841;DHT22;47773;53.174;6.614;2023-08-06T07:05:45;16.00;99.90
61841;DHT22;47773;53.174;6.614;2023-08-06T07:08:11;16.00;99.90
61841;DHT22;47773;53.174;6.614;2023-08-06T07:10:37;16.10;99.90
61841;DHT22;47773;53.174;6.614;2023-08-06T07:13:03;16.20;99.90
61841;DHT22;47773;53.174;6.614;2023-08-06T07:15:29;16.30;99.90
61841;DHT22;47773;53.174;6.614;2023-08-06T07:17:54;16.40;99.90
61841;DHT22;47773;53.174;6.614;2023-08-06T07:20:20;16.50;99.90
61841;DHT22;47773;53.174;6.614;2023-08-06T07:22:46;16.60;99.90
61841;DHT22;47773;53.174;6.614;2023-08-06T07:25:11;16.70;99.90
61841;DHT22;47773;53.174;6.614;2023-08-06T07:27:37;16.80;99.90
61841;DHT22;47773;53.174;6.614;2023-08-06T07:30:03;17.00;99.90
61841;DHT22;47773;53.174;6.614;2023-08-06T07:32:30;17.10;99.90
61841;DHT22;47773;53.174;6.614;2023-08-06T07:34:56;17.10;99.90
61841;DHT22;47773;53.174;6.614;2023-08-06T07:37:26;17.10;99.90
61841;DHT22;47773;53.174;6.614;2023-08-06T07:39:56;17.10;99.90
61841;DHT22;47773;53.174;6.614;2023-08-06T07:42:23;17.10;99.90
61841;DHT22;47773;53.174;6.614;2023-08-06T07:44:53;17.10;99.90
61841;DHT22;47773;53.174;6.614;2023-08-06T07:47:20;17.10;99.90
61841;DHT22;47773;53.174;6.614;2023-08-06T07:49:45;17.20;99.90
61841;DHT22;47773;53.174;6.614;2023-08-06T07:52:11;17.20;99.90
61841;DHT22;47773;53.174;6.614;2023-08-06T07:54:37;17.20;99.90
61841;DHT22;47773;53.174;6.614;2023-08-06T07:57:03;17.20;99.90
61841;DHT22;47773;53.174;6.614;2023-08-06T07:59:28;17.20;99.90
61841;DHT22;47773;53.174;6.614;2023-08-06T08:01:54;17.40;99.90
61841;DHT22;47773;53.174;6.614;2023-08-06T08:04:20;17.50;99.90
61841;DHT22;47773;53.174;6.614;2023-08-06T08:06:46;17.60;99.90
61841;DHT22;47773;53.174;6.614;2023-08-06T08:09:13;17.60;99.90
61841;DHT22;47773;53.174;6.614;2023-08-06T08:11:39;17.60;99.90
61841;DHT22;47773;53.174;6.614;2023-08-06T08:14:05;17.80;99.90
61841;DHT22;47773;53.174;6.614;2023-08-06T08:16:31;18.00;99.90
61841;DHT22;47773;53.174;6.614;2023-08-06T08:18:57;18.40;99.90
61841;DHT22;47773;53.174;6.614;2023-08-06T08:21:22;18.70;99.90
61841;DHT22;47773;53.174;6.614;2023-08-06T08:23:50;18.90;99.90
61841;DHT22;47773;53.174;6.614;2023-08-06T08:26:15;19.00;99.90
61841;DHT22;47773;53.174;6.614;2023-08-06T08:28:41;19.00;99.90
61841;DHT22;47773;53.174;6.614;2023-08-06T08:31:11;19.10;99.90
61841;DHT22;47773;53.174;6.614;2023-08-06T08:33:39;19.20;99.90
61841;DHT22;47773;53.174;6.614;2023-08-06T08:36:05;19.20;99.90
61841;DHT22;47773;53.174;6.614;2023-08-06T08:38:30;19.20;99.90
61841;DHT22;47773;53.174;6.614;2023-08-06T08:40:56;19.40;99.90
61841;DHT22;47773;53.174;6.614;2023-08-06T08:43:22;19.60;99.90
61841;DHT22;47773;53.174;6.614;2023-08-06T08:45:52;19.70;99.90
61841;DHT22;47773;53.174;6.614;2023-08-06T08:48:18;19.80;99.90
61841;DHT22;47773;53.174;6.614;2023-08-06T08:50:46;19.80;99.90
61841;DHT22;47773;53.174;6.614;2023-08-06T08:53:14;19.80;99.90
61841;DHT22;47773;53.174;6.614;2023-08-06T08:55:40;19.80;99.90
61841;DHT22;47773;53.174;6.614;2023-08-06T08:58:06;19.70;99.90
61841;DHT22;47773;53.174;6.614;2023-08-06T09:00:32;19.60;99.90
61841;DHT22;47773;53.174;6.614;2023-08-06T09:02:59;19.60;99.90
61841;DHT22;47773;53.174;6.614;2023-08-06T09:05:28;19.60;99.90
61841;DHT22;47773;53.174;6.614;2023-08-06T09:08:02;19.70;99.90
61841;DHT22;47773;53.174;6.614;2023-08-06T09:10:28;19.80;99.90
61841;DHT22;47773;53.174;6.614;2023-08-06T09:12:56;19.70;99.90
61841;DHT22;47773;53.174;6.614;2023-08-06T09:15:26;19.70;99.90
61841;DHT22;47773;53.174;6.614;2023-08-06T09:17:53;19.70;99.90
61841;DHT22;47773;53.174;6.614;2023-08-06T09:20:18;19.70;99.90
61841;DHT22;47773;53.174;6.614;2023-08-06T09:22:44;19.70;99.90
61841;DHT22;47773;53.174;6.614;2023-08-06T09:25:10;19.50;99.90
61841;DHT22;47773;53.174;6.614;2023-08-06T09:27:40;19.40;99.90
61841;DHT22;47773;53.174;6.614;2023-08-06T09:30:07;19.40;99.90
61841;DHT22;47773;53.174;6.614;2023-08-06T09:32:46;19.40;99.90
61841;DHT22;47773;53.174;6.614;2023-08-06T09:35:18;19.60;99.90
61841;DHT22;47773;53.174;6.614;2023-08-06T09:37:45;19.60;99.90
61841;DHT22;47773;53.174;6.614;2023-08-06T09:40:31;19.60;99.90
61841;DHT22;47773;53.174;6.614;2023-08-06T09:42:58;19.70;99.90
61841;DHT22;47773;53.174;6.614;2023-08-06T09:45:30;19.70;99.90
61841;DHT22;47773;53.174;6.614;2023-08-06T09:47:57;19.80;99.90
61841;DHT22;47773;53.174;6.614;2023-08-06T09:50:29;20.00;99.90
61841;DHT22;47773;53.174;6.614;2023-08-06T09:52:56;20.10;99.90
61841;DHT22;47773;53.174;6.614;2023-08-06T09:55:22;20.20;99.90
61841;DHT22;47773;53.174;6.614;2023-08-06T09:57:49;20.20;99.90
61841;DHT22;47773;53.174;6.614;2023-08-06T10:00:15;20.30;99.90
61841;DHT22;47773;53.174;6.614;2023-08-06T10:02:42;20.40;99.90
61841;DHT22;47773;53.174;6.614;2023-08-06T10:05:09;20.60;99.90
61841;DHT22;47773;53.174;6.614;2023-08-06T10:07:35;20.60;99.90
61841;DHT22;47773;53.174;6.614;2023-08-06T10:10:02;20.70;99.90
61841;DHT22;47773;53.174;6.614;2023-08-06T10:12:40;20.80;99.90
61841;DHT22;47773;53.174;6.614;2023-08-06T10:15:11;20.90;99.90
61841;DHT22;47773;53.174;6.614;2023-08-06T10:17:38;20.90;99.90
61841;DHT22;47773;53.174;6.614;2023-08-06T10:20:05;21.10;99.90
61841;DHT22;47773;53.174;6.614;2023-08-06T10:22:33;21.10;99.90
61841;DHT22;47773;53.174;6.614;2023-08-06T10:25:00;21.20;99.90
61841;DHT22;47773;53.174;6.614;2023-08-06T10:27:30;21.30;99.90
61841;DHT22;47773;53.174;6.614;2023-08-06T10:30:20;21.30;99.90
61841;DHT22;47773;53.174;6.614;2023-08-06T10:32:47;21.30;99.90
61841;DHT22;47773;53.174;6.614;2023-08-06T10:35:47;21.40;99.90
61841;DHT22;47773;53.174;6.614;2023-08-06T10:38:20;21.60;99.90
61841;DHT22;47773;53.174;6.614;2023-08-06T10:43:37;21.60;99.90
61841;DHT22;47773;53.174;6.614;2023-08-06T10:46:26;21.70;99.90
61841;DHT22;47773;53.174;6.614;2023-08-06T10:48:51;22.10;99.90
61841;DHT22;47773;53.174;6.614;2023-08-06T10:51:17;22.60;99.90
61841;DHT22;47773;53.174;6.614;2023-08-06T10:53:47;22.80;99.90
61841;DHT22;47773;53.174;6.614;2023-08-06T10:56:18;22.90;99.90
61841;DHT22;47773;53.174;6.614;2023-08-06T10:58:47;23.10;99.90
61841;DHT22;47773;53.174;6.614;2023-08-06T11:01:13;23.00;99.90
61841;DHT22;47773;53.174;6.614;2023-08-06T11:03:42;23.10;99.90
61841;DHT22;47773;53.174;6.614;2023-08-06T11:06:09;22.90;99.90
61841;DHT22;47773;53.174;6.614;2023-08-06T11:08:36;22.70;99.90
61841;DHT22;47773;53.174;6.614;2023-08-06T11:11:16;22.70;99.90
61841;DHT22;47773;53.174;6.614;2023-08-06T11:13:48;22.70;99.90
61841;DHT22;47773;53.174;6.614;2023-08-06T11:16:14;22.80;99.90
61841;DHT22;47773;53.174;6.614;2023-08-06T11:18:41;22.80;99.90
61841;DHT22;47773;53.174;6.614;2023-08-06T11:21:07;22.90;99.90
61841;DHT22;47773;53.174;6.614;2023-08-06T11:23:34;23.00;99.90
61841;DHT22;47773;53.174;6.614;2023-08-06T11:26:00;22.90;99.90
61841;DHT22;47773;53.174;6.614;2023-08-06T11:28:26;23.00;99.90
61841;DHT22;47773;53.174;6.614;2023-08-06T11:30:53;22.90;99.90
61841;DHT22;47773;53.174;6.614;2023-08-06T11:33:22;22.70;99.90
61841;DHT22;47773;53.174;6.614;2023-08-06T11:35:48;22.50;99.90
61841;DHT22;47773;53.174;6.614;2023-08-06T11:38:14;22.30;99.90
61841;DHT22;47773;53.174;6.614;2023-08-06T11:40:46;22.10;99.90
61841;DHT22;47773;53.174;6.614;2023-08-06T11:43:13;21.90;99.90
61841;DHT22;47773;53.174;6.614;2023-08-06T11:45:39;21.80;99.90
61841;DHT22;47773;53.174;6.614;2023-08-06T11:48:06;21.80;99.90
61841;DHT22;47773;53.174;6.614;2023-08-06T11:50:37;21.80;99.90
61841;DHT22;47773;53.174;6.614;2023-08-06T11:53:03;21.90;99.90
61841;DHT22;47773;53.174;6.614;2023-08-06T11:55:29;21.80;99.90
61841;DHT22;47773;53.174;6.614;2023-08-06T11:57:55;21.80;99.90
61841;DHT22;47773;53.174;6.614;2023-08-06T12:00:24;21.80;99.90
61841;DHT22;47773;53.174;6.614;2023-08-06T12:02:50;21.70;99.90
61841;DHT22;47773;53.174;6.614;2023-08-06T12:05:22;21.60;99.90
61841;DHT22;47773;53.174;6.614;2023-08-06T12:07:56;21.60;99.90
61841;DHT22;47773;53.174;6.614;2023-08-06T12:10:23;21.70;99.90
61841;DHT22;47773;53.174;6.614;2023-08-06T12:12:50;21.80;99.90
61841;DHT22;47773;53.174;6.614;2023-08-06T12:15:15;21.90;99.90
61841;DHT22;47773;53.174;6.614;2023-08-06T12:17:41;21.90;99.90
61841;DHT22;47773;53.174;6.614;2023-08-06T12:20:09;21.80;99.90
61841;DHT22;47773;53.174;6.614;2023-08-06T12:22:35;21.80;99.90
61841;DHT22;47773;53.174;6.614;2023-08-06T12:25:08;21.70;99.90
61841;DHT22;47773;53.174;6.614;2023-08-06T12:27:38;21.70;99.90
61841;DHT22;47773;53.174;6.614;2023-08-06T12:30:04;21.70;99.90
61841;DHT22;47773;53.174;6.614;2023-08-06T12:32:30;21.70;99.90
61841;DHT22;47773;53.174;6.614;2023-08-06T12:34:56;21.70;99.90
61841;DHT22;47773;53.174;6.614;2023-08-06T12:37:23;21.60;99.90
61841;DHT22;47773;53.174;6.614;2023-08-06T12:39:49;21.80;99.90
61841;DHT22;47773;53.174;6.614;2023-08-06T12:42:15;22.00;99.90
61841;DHT22;47773;53.174;6.614;2023-08-06T12:44:41;22.10;99.90
61841;DHT22;47773;53.174;6.614;2023-08-06T12:47:09;22.30;99.90
61841;DHT22;47773;53.174;6.614;2023-08-06T12:49:35;22.40;99.90
61841;DHT22;47773;53.174;6.614;2023-08-06T12:52:01;22.40;99.90
61841;DHT22;47773;53.174;6.614;2023-08-06T12:54:28;22.40;99.90
61841;DHT22;47773;53.174;6.614;2023-08-06T12:56:54;22.30;99.90
61841;DHT22;47773;53.174;6.614;2023-08-06T12:59:20;22.10;99.90
61841;DHT22;47773;53.174;6.614;2023-08-06T13:01:46;22.20;99.90
61841;DHT22;47773;53.174;6.614;2023-08-06T13:04:12;22.40;99.90
61841;DHT22;47773;53.174;6.614;2023-08-06T13:06:38;22.40;99.90
61841;DHT22;47773;53.174;6.614;2023-08-06T13:09:08;22.50;99.90
61841;DHT22;47773;53.174;6.614;2023-08-06T13:11:35;22.60;99.90
61841;DHT22;47773;53.174;6.614;2023-08-06T13:14:06;22.70;99.90
61841;DHT22;47773;53.174;6.614;2023-08-06T13:16:32;22.80;99.90
61841;DHT22;47773;53.174;6.614;2023-08-06T13:18:58;22.60;99.90
61841;DHT22;47773;53.174;6.614;2023-08-06T13:21:24;22.40;99.90
61841;DHT22;47773;53.174;6.614;2023-08-06T13:23:49;22.10;99.90
61841;DHT22;47773;53.174;6.614;2023-08-06T13:26:15;22.10;99.90
61841;DHT22;47773;53.174;6.614;2023-08-06T13:28:41;22.20;99.90
61841;DHT22;47773;53.174;6.614;2023-08-06T13:31:07;22.00;99.90
61841;DHT22;47773;53.174;6.614;2023-08-06T13:33:33;22.10;99.90
61841;DHT22;47773;53.174;6.614;2023-08-06T13:35:59;22.20;99.90
61841;DHT22;47773;53.174;6.614;2023-08-06T13:38:24;22.30;99.90
61841;DHT22;47773;53.174;6.614;2023-08-06T13:40:50;22.50;99.90
61841;DHT22;47773;53.174;6.614;2023-08-06T13:43:16;22.40;99.90
61841;DHT22;47773;53.174;6.614;2023-08-06T13:45:44;22.10;99.90
61841;DHT22;47773;53.174;6.614;2023-08-06T13:48:10;21.80;99.90
61841;DHT22;47773;53.174;6.614;2023-08-06T13:50:36;21.70;99.90
61841;DHT22;47773;53.174;6.614;2023-08-06T13:53:02;21.50;99.90
61841;DHT22;47773;53.174;6.614;2023-08-06T13:55:28;21.40;99.90
61841;DHT22;47773;53.174;6.614;2023-08-06T13:57:54;21.40;99.90
61841;DHT22;47773;53.174;6.614;2023-08-06T14:00:19;21.30;99.90
61841;DHT22;47773;53.174;6.614;2023-08-06T14:02:45;21.20;99.90
61841;DHT22;47773;53.174;6.614;2023-08-06T14:05:11;21.10;99.90
61841;DHT22;47773;53.174;6.614;2023-08-06T14:07:36;21.10;99.90
61841;DHT22;47773;53.174;6.614;2023-08-06T14:10:02;21.00;99.90
61841;DHT22;47773;53.174;6.614;2023-08-06T14:12:28;21.00;99.90
61841;DHT22;47773;53.174;6.614;2023-08-06T14:14:53;21.10;99.90
61841;DHT22;47773;53.174;6.614;2023-08-06T14:17:19;21.40;99.90
61841;DHT22;47773;53.174;6.614;2023-08-06T14:19:45;21.60;99.90
61841;DHT22;47773;53.174;6.614;2023-08-06T14:22:10;21.70;99.90
61841;DHT22;47773;53.174;6.614;2023-08-06T14:24:36;21.80;99.90
61841;DHT22;47773;53.174;6.614;2023-08-06T14:27:02;21.90;99.90
61841;DHT22;47773;53.174;6.614;2023-08-06T14:29:29;21.90;99.90
61841;DHT22;47773;53.174;6.614;2023-08-06T14:31:55;21.90;99.90
61841;DHT22;47773;53.174;6.614;2023-08-06T14:34:20;21.80;99.90
61841;DHT22;47773;53.174;6.614;2023-08-06T14:36:46;21.90;99.90
61841;DHT22;47773;53.174;6.614;2023-08-06T14:39:12;22.00;99.90
61841;DHT22;47773;53.174;6.614;2023-08-06T14:41:37;21.80;99.90
61841;DHT22;47773;53.174;6.614;2023-08-06T14:44:03;21.70;99.90
61841;DHT22;47773;53.174;6.614;2023-08-06T14:46:29;21.70;99.90
61841;DHT22;47773;53.174;6.614;2023-08-06T14:48:54;21.60;99.90
61841;DHT22;47773;53.174;6.614;2023-08-06T14:51:20;21.60;99.90
61841;DHT22;47773;53.174;6.614;2023-08-06T14:53:46;21.50;99.90
61841;DHT22;47773;53.174;6.614;2023-08-06T14:56:12;21.40;99.90
61841;DHT22;47773;53.174;6.614;2023-08-06T14:58:38;21.30;99.90
61841;DHT22;47773;53.174;6.614;2023-08-06T15:01:03;21.20;99.90
61841;DHT22;47773;53.174;6.614;2023-08-06T15:03:29;21.30;99.90
61841;DHT22;47773;53.174;6.614;2023-08-06T15:05:56;21.30;99.90
61841;DHT22;47773;53.174;6.614;2023-08-06T15:08:22;21.30;99.90
61841;DHT22;47773;53.174;6.614;2023-08-06T15:10:52;21.40;99.90
61841;DHT22;47773;53.174;6.614;2023-08-06T15:13:18;21.40;99.90
61841;DHT22;47773;53.174;6.614;2023-08-06T15:15:46;21.50;99.90
61841;DHT22;47773;53.174;6.614;2023-08-06T15:18:12;21.40;99.90
61841;DHT22;47773;53.174;6.614;2023-08-06T15:20:38;21.50;99.90
61841;DHT22;47773;53.174;6.614;2023-08-06T15:23:03;21.50;99.90
61841;DHT22;47773;53.174;6.614;2023-08-06T15:25:29;21.50;99.90
61841;DHT22;47773;53.174;6.614;2023-08-06T15:27:55;21.60;99.90
61841;DHT22;47773;53.174;6.614;2023-08-06T15:30:20;21.60;99.90
61841;DHT22;47773;53.174;6.614;2023-08-06T15:32:46;21.50;99.90